sensor_id;sensor_type;location;lat;lon;timestamp;temperature;humidity
34279;DHT22;20538;51.528;9.942;2023-08-06T00:02:24;16.30;99.90
34279;DHT22;20538;51.528;9.942;2023-08-06T00:04:50;16.30;99.90
34279;DHT22;20538;51.528;9.942;2023-08-06T00:07:16;16.30;99.90
34279;DHT22;20538;51.528;9.942;2023-08-06T00:09:41;16.30;99.90
34279;DHT22;20538;51.528;9.942;2023-08-06T00:12:07;16.30;99.90
34279;DHT22;20538;51.528;9.942;2023-08-06T00:14:33;16.20;99.90
34279;DHT22;20538;51.528;9.942;2023-08-06T00:16:58;16.10;99.90
34279;DHT22;20538;51.528;9.942;2023-08-06T00:19:24;16.10;99.90
34279;DHT22;20538;51.528;9.942;2023-08-06T00:21:49;16.10;99.90
34279;DHT22;20538;51.528;9.942;2023-08-06T00:24:18;16.10;99.90
34279;DHT22;20538;51.528;9.942;2023-08-06T00:26:44;16.00;99.90
34279;DHT22;20538;51.528;9.942;2023-08-06T00:29:09;16.10;99.90
34279;DHT22;20538;51.528;9.942;2023-08-06T00:31:35;16.10;99.90
34279;DHT22;20538;51.528;9.942;2023-08-06T00:34:00;16.00;99.90
34279;DHT22;20538;51.528;9.942;2023-08-06T00:36:26;16.00;99.90
34279;DHT22;20538;51.528;9.942;2023-08-06T00:38:52;16.00;99.90
34279;DHT22;20538;51.528;9.942;2023-08-06T00:41:17;16.00;99.90
34279;DHT22;20538;51.528;9.942;2023-08-06T00:43:43;16.00;99.90
34279;DHT22;20538;51.528;9.942;2023-08-06T00:46:09;16.00;99.90
34279;DHT22;20538;51.528;9.942;2023-08-06T00:48:35;16.00;99.90
34279;DHT22;20538;51.528;9.942;2023-08-06T00:51:01;15.90;99.90
34279;DHT22;20538;51.528;9.942;2023-08-06T00:53:27;15.90;99.90
34279;DHT22;20538;51.528;9.942;2023-08-06T00:55:53;15.90;99.90
34279;DHT22;20538;51.528;9.942;2023-08-06T00:58:19;15.90;99.90
34279;DHT22;20538;51.528;9.942;2023-08-06T01:00:44;15.90;99.90
34279;DHT22;20538;51.528;9.942;2023-08-06T01:03:11;15.90;99.90
34279;DHT22;20538;51.528;9.942;2023-08-06T01:05:36;15.90;99.90
34279;DHT22;20538;51.528;9.942;2023-08-06T01:13:26;15.80;99.90
34279;DHT22;20538;51.528;9.942;2023-08-06T01:15:55;15.80;99.90
34279;DHT22;20538;51.528;9.942;2023-08-06T01:18:23;15.70;99.90
34279;DHT22;20538;51.528;9.942;2023-08-06T01:20:48;15.70;99.90
34279;DHT22;20538;51.528;9.942;2023-08-06T01:23:15;15.80;99.90
34279;DHT22;20538;51.528;9.942;2023-08-06T01:31:37;15.70;99.90
34279;DHT22;20538;51.528;9.942;2023-08-06T01:34:06;15.70;99.90
34279;DHT22;20538;51.528;9.942;2023-08-06T01:36:32;15.70;99.90
34279;DHT22;20538;51.528;9.942;2023-08-06T01:38:59;15.70;99.90
34279;DHT22;20538;51.528;9.942;2023-08-06T01:41:25;15.70;99.90
34279;DHT22;20538;51.528;9.942;2023-08-06T01:43:51;15.70;99.90
34279;DHT22;20538;51.528;9.942;2023-08-06T01:46:16;15.70;99.90
34279;DHT22;20538;51.528;9.942;2023-08-06T01:48:42;15.70;99.90
34279;DHT22;20538;51.528;9.942;2023-08-06T01:51:08;15.60;99.90
34279;DHT22;20538;51.528;9.942;2023-08-06T01:53:34;15.60;99.90
34279;DHT22;20538;51.528;9.942;2023-08-06T01:55:59;15.60;99.90
34279;DHT22;20538;51.528;9.942;2023-08-06T01:58:25;15.60;99.90
34279;DHT22;20538;51.528;9.942;2023-08-06T02:00:51;15.70;99.90
34279;DHT22;20538;51.528;9.942;2023-08-06T02:03:19;15.60;99.90
34279;DHT22;20538;51.528;9.942;2023-08-06T02:05:44;15.70;99.90
34279;DHT22;20538;51.528;9.942;2023-08-06T02:08:11;15.60;99.90
34279;DHT22;20538;51.528;9.942;2023-08-06T02:10:36;15.60;99.90
34279;DHT22;20538;51.528;9.942;2023-08-06T02:13:02;15.60;99.90
34279;DHT22;20538;51.528;9.942;2023-08-06T02:15:28;15.60;99.90
34279;DHT22;20538;51.528;9.942;2023-08-06T02:17:54;15.60;99.90
34279;DHT22;20538;51.528;9.942;2023-08-06T02:20:19;15.60;99.90
34279;DHT22;20538;51.528;9.942;2023-08-06T02:22:45;15.60;99.90
34279;DHT22;20538;51.528;9.942;2023-08-06T02:25:11;15.60;99.90
34279;DHT22;20538;51.528;9.942;2023-08-06T02:27:37;15.60;99.90
34279;DHT22;20538;51.528;9.942;2023-08-06T02:30:03;15.60;99.90
34279;DHT22;20538;51.528;9.942;2023-08-06T02:32:30;15.60;99.90
34279;DHT22;20538;51.528;9.942;2023-08-06T02:34:57;15.60;99.90
34279;DHT22;20538;51.528;9.942;2023-08-06T02:37:22;15.60;99.90
34279;DHT22;20538;51.528;9.942;2023-08-06T02:39:48;15.60;99.90
34279;DHT22;20538;51.528;9.942;2023-08-06T02:42:14;15.60;99.90
34279;DHT22;20538;51.528;9.942;2023-08-06T02:44:39;15.60;99.90
34279;DHT22;20538;51.528;9.942;2023-08-06T02:47:05;15.60;99.90
34279;DHT22;20538;51.528;9.942;2023-08-06T02:49:31;15.60;99.90
34279;DHT22;20538;51.528;9.942;2023-08-06T02:51:56;15.50;99.90
34279;DHT22;20538;51.528;9.942;2023-08-06T02:54:22;15.60;99.90
34279;DHT22;20538;51.528;9.942;2023-08-06T02:56:48;15.60;99.90
34279;DHT22;20538;51.528;9.942;2023-08-06T02:59:13;15.60;99.90
34279;DHT22;20538;51.528;9.942;2023-08-06T03:01:39;15.50;99.90
34279;DHT22;20538;51.528;9.942;2023-08-06T03:04:05;15.50;99.90
34279;DHT22;20538;51.528;9.942;2023-08-06T03:06:31;15.50;99.90
34279;DHT22;20538;51.528;9.942;2023-08-06T03:08:57;15.40;99.90
34279;DHT22;20538;51.528;9.942;2023-08-06T03:11:22;15.40;99.90
34279;DHT22;20538;51.528;9.942;2023-08-06T03:13:48;15.30;99.90
34279;DHT22;20538;51.528;9.942;2023-08-06T03:16:14;15.20;99.90
34279;DHT22;20538;51.528;9.942;2023-08-06T03:18:40;15.10;99.90
34279;DHT22;20538;51.528;9.942;2023-08-06T03:21:06;15.10;99.90
34279;DHT22;20538;51.528;9.942;2023-08-06T03:23:32;15.00;99.90
34279;DHT22;20538;51.528;9.942;2023-08-06T03:26:04;15.00;99.90
34279;DHT22;20538;51.528;9.942;2023-08-06T03:28:29;14.90;99.90
34279;DHT22;20538;51.528;9.942;2023-08-06T03:31:02;14.90;99.90
34279;DHT22;20538;51.528;9.942;2023-08-06T03:33:28;14.90;99.90
34279;DHT22;20538;51.528;9.942;2023-08-06T03:35:54;14.90;99.90
34279;DHT22;20538;51.528;9.942;2023-08-06T03:38:20;14.80;99.90
34279;DHT22;20538;51.528;9.942;2023-08-06T03:40:49;14.80;99.90
34279;DHT22;20538;51.528;9.942;2023-08-06T03:43:15;14.80;99.90
34279;DHT22;20538;51.528;9.942;2023-08-06T03:45:41;14.80;99.90
34279;DHT22;20538;51.528;9.942;2023-08-06T03:48:07;14.80;99.90
34279;DHT22;20538;51.528;9.942;2023-08-06T03:50:33;14.80;99.90
34279;DHT22;20538;51.528;9.942;2023-08-06T03:52:59;14.80;99.90
34279;DHT22;20538;51.528;9.942;2023-08-06T03:55:24;14.80;99.90
34279;DHT22;20538;51.528;9.942;2023-08-06T03:57:50;14.70;99.90
34279;DHT22;20538;51.528;9.942;2023-08-06T04:00:16;14.80;99.90
34279;DHT22;20538;51.528;9.942;2023-08-06T04:02:41;14.80;99.90
34279;DHT22;20538;51.528;9.942;2023-08-06T04:05:07;14.80;99.90
34279;DHT22;20538;51.528;9.942;2023-08-06T04:07:33;14.90;99.90
34279;DHT22;20538;51.528;9.942;2023-08-06T04:10:07;15.00;99.90
34279;DHT22;20538;51.528;9.942;2023-08-06T04:12:33;15.00;99.90
34279;DHT22;20538;51.528;9.942;2023-08-06T04:15:02;15.10;99.90
34279;DHT22;20538;51.528;9.942;2023-08-06T04:17:29;15.10;99.90
34279;DHT22;20538;51.528;9.942;2023-08-06T04:19:55;15.10;99.90
34279;DHT22;20538;51.528;9.942;2023-08-06T04:22:23;15.10;99.90
34279;DHT22;20538;51.528;9.942;2023-08-06T04:24:49;15.10;99.90
34279;DHT22;20538;51.528;9.942;2023-08-06T04:27:16;15.10;99.90
34279;DHT22;20538;51.528;9.942;2023-08-06T04:29:42;15.00;99.90
34279;DHT22;20538;51.528;9.942;2023-08-06T04:32:09;15.00;99.90
34279;DHT22;20538;51.528;9.942;2023-08-06T04:34:37;15.00;99.90
34279;DHT22;20538;51.528;9.942;2023-08-06T04:37:04;15.00;99.90
34279;DHT22;20538;51.528;9.942;2023-08-06T04:39:30;15.00;99.90
34279;DHT22;20538;51.528;9.942;2023-08-06T04:41:56;15.00;99.90
34279;DHT22;20538;51.528;9.942;2023-08-06T04:44:23;15.00;99.90
34279;DHT22;20538;51.528;9.942;2023-08-06T04:46:48;15.00;99.90
34279;DHT22;20538;51.528;9.942;2023-08-06T04:49:14;15.00;99.90
34279;DHT22;20538;51.528;9.942;2023-08-06T04:51:40;15.00;99.90
34279;DHT22;20538;51.528;9.942;2023-08-06T04:54:06;15.00;99.90
34279;DHT22;20538;51.528;9.942;2023-08-06T04:56:31;15.00;99.90
34279;DHT22;20538;51.528;9.942;2023-08-06T04:58:58;15.10;99.90
34279;DHT22;20538;51.528;9.942;2023-08-06T05:01:24;15.10;99.90
34279;DHT22;20538;51.528;9.942;2023-08-06T05:03:49;15.10;99.90
34279;DHT22;20538;51.528;9.942;2023-08-06T05:06:15;15.10;99.90
34279;DHT22;20538;51.528;9.942;2023-08-06T05:08:40;15.20;99.90
34279;DHT22;20538;51.528;9.942;2023-08-06T05:11:06;15.20;99.90
34279;DHT22;20538;51.528;9.942;2023-08-06T05:13:32;15.30;99.90
34279;DHT22;20538;51.528;9.942;2023-08-06T05:15:58;15.30;99.90
34279;DHT22;20538;51.528;9.942;2023-08-06T05:18:24;15.30;99.90
34279;DHT22;20538;51.528;9.942;2023-08-06T05:20:49;15.30;99.90
34279;DHT22;20538;51.528;9.942;2023-08-06T05:23:15;15.40;99.90
34279;DHT22;20538;51.528;9.942;2023-08-06T05:25:42;15.50;99.90
34279;DHT22;20538;51.528;9.942;2023-08-06T05:28:08;15.50;99.90
34279;DHT22;20538;51.528;9.942;2023-08-06T05:30:33;15.60;99.90
34279;DHT22;20538;51.528;9.942;2023-08-06T05:32:59;15.70;99.90
34279;DHT22;20538;51.528;9.942;2023-08-06T05:35:25;15.90;99.90
34279;DHT22;20538;51.528;9.942;2023-08-06T05:37:51;17.00;99.90
34279;DHT22;20538;51.528;9.942;2023-08-06T05:40:16;18.40;99.90
34279;DHT22;20538;51.528;9.942;2023-08-06T05:42:42;19.50;99.90
34279;DHT22;20538;51.528;9.942;2023-08-06T05:45:08;19.90;99.90
34279;DHT22;20538;51.528;9.942;2023-08-06T05:47:35;19.50;99.90
34279;DHT22;20538;51.528;9.942;2023-08-06T05:50:01;18.70;99.90
34279;DHT22;20538;51.528;9.942;2023-08-06T05:52:26;18.10;99.90
34279;DHT22;20538;51.528;9.942;2023-08-06T05:54:52;17.80;99.90
34279;DHT22;20538;51.528;9.942;2023-08-06T05:57:17;17.70;99.90
34279;DHT22;20538;51.528;9.942;2023-08-06T05:59:43;17.50;99.90
34279;DHT22;20538;51.528;9.942;2023-08-06T06:02:09;17.20;99.90
34279;DHT22;20538;51.528;9.942;2023-08-06T06:04:35;17.10;99.90
34279;DHT22;20538;51.528;9.942;2023-08-06T06:07:00;17.00;99.90
34279;DHT22;20538;51.528;9.942;2023-08-06T06:09:26;17.00;99.90
34279;DHT22;20538;51.528;9.942;2023-08-06T06:11:52;16.90;99.90
34279;DHT22;20538;51.528;9.942;2023-08-06T06:14:18;16.90;99.90
34279;DHT22;20538;51.528;9.942;2023-08-06T06:16:45;16.90;99.90
34279;DHT22;20538;51.528;9.942;2023-08-06T06:19:11;17.00;99.90
34279;DHT22;20538;51.528;9.942;2023-08-06T06:21:38;16.80;99.90
34279;DHT22;20538;51.528;9.942;2023-08-06T06:24:05;16.80;99.90
34279;DHT22;20538;51.528;9.942;2023-08-06T06:26:32;16.80;99.90
34279;DHT22;20538;51.528;9.942;2023-08-06T06:28:57;17.00;99.90
34279;DHT22;20538;51.528;9.942;2023-08-06T06:31:23;17.10;99.90
34279;DHT22;20538;51.528;9.942;2023-08-06T06:33:49;17.10;99.90
34279;DHT22;20538;51.528;9.942;2023-08-06T06:36:15;17.10;99.90
34279;DHT22;20538;51.528;9.942;2023-08-06T06:38:40;17.20;99.90
34279;DHT22;20538;51.528;9.942;2023-08-06T06:41:06;17.30;99.90
34279;DHT22;20538;51.528;9.942;2023-08-06T06:43:32;17.60;99.90
34279;DHT22;20538;51.528;9.942;2023-08-06T06:46:01;17.70;99.90
34279;DHT22;20538;51.528;9.942;2023-08-06T06:48:28;17.80;99.90
34279;DHT22;20538;51.528;9.942;2023-08-06T06:50:54;17.90;99.90
34279;DHT22;20538;51.528;9.942;2023-08-06T06:53:20;18.20;99.90
34279;DHT22;20538;51.528;9.942;2023-08-06T06:55:47;18.30;99.90
34279;DHT22;20538;51.528;9.942;2023-08-06T06:58:15;18.40;99.90
34279;DHT22;20538;51.528;9.942;2023-08-06T07:00:41;18.50;99.90
34279;DHT22;20538;51.528;9.942;2023-08-06T07:03:07;18.50;99.90
34279;DHT22;20538;51.528;9.942;2023-08-06T07:05:32;18.60;99.90
34279;DHT22;20538;51.528;9.942;2023-08-06T07:07:58;18.70;99.90
34279;DHT22;20538;51.528;9.942;2023-08-06T07:10:25;18.60;99.90
34279;DHT22;20538;51.528;9.942;2023-08-06T07:12:51;18.70;99.90
34279;DHT22;20538;51.528;9.942;2023-08-06T07:15:16;18.70;99.90
34279;DHT22;20538;51.528;9.942;2023-08-06T07:17:43;18.70;99.90
34279;DHT22;20538;51.528;9.942;2023-08-06T07:20:09;18.80;99.90
34279;DHT22;20538;51.528;9.942;2023-08-06T07:22:35;18.90;99.90
34279;DHT22;20538;51.528;9.942;2023-08-06T07:25:01;19.00;99.90
34279;DHT22;20538;51.528;9.942;2023-08-06T07:27:27;19.00;99.90
34279;DHT22;20538;51.528;9.942;2023-08-06T07:29:53;19.20;99.90
34279;DHT22;20538;51.528;9.942;2023-08-06T07:32:18;19.20;99.90
34279;DHT22;20538;51.528;9.942;2023-08-06T07:34:44;19.30;99.90
34279;DHT22;20538;51.528;9.942;2023-08-06T07:37:10;19.20;99.90
34279;DHT22;20538;51.528;9.942;2023-08-06T07:39:35;19.20;99.90
34279;DHT22;20538;51.528;9.942;2023-08-06T07:42:03;19.20;99.90
34279;DHT22;20538;51.528;9.942;2023-08-06T07:44:31;19.40;99.90
34279;DHT22;20538;51.528;9.942;2023-08-06T07:46:57;19.60;99.90
34279;DHT22;20538;51.528;9.942;2023-08-06T07:49:22;19.30;99.90
34279;DHT22;20538;51.528;9.942;2023-08-06T07:51:48;19.60;99.90
34279;DHT22;20538;51.528;9.942;2023-08-06T07:54:14;19.60;99.90
34279;DHT22;20538;51.528;9.942;2023-08-06T07:56:40;19.50;99.90
34279;DHT22;20538;51.528;9.942;2023-08-06T07:59:05;19.40;99.90
34279;DHT22;20538;51.528;9.942;2023-08-06T08:01:31;19.00;99.90
34279;DHT22;20538;51.528;9.942;2023-08-06T08:03:57;19.10;99.90
34279;DHT22;20538;51.528;9.942;2023-08-06T08:06:22;19.30;99.90
34279;DHT22;20538;51.528;9.942;2023-08-06T08:08:51;19.50;99.90
34279;DHT22;20538;51.528;9.942;2023-08-06T08:11:17;19.70;99.90
34279;DHT22;20538;51.528;9.942;2023-08-06T08:13:44;19.80;99.90
34279;DHT22;20538;51.528;9.942;2023-08-06T08:16:09;20.00;99.90
34279;DHT22;20538;51.528;9.942;2023-08-06T08:18:35;19.90;99.90
34279;DHT22;20538;51.528;9.942;2023-08-06T08:21:01;20.10;99.90
34279;DHT22;20538;51.528;9.942;2023-08-06T08:23:26;20.20;99.90
34279;DHT22;20538;51.528;9.942;2023-08-06T08:25:52;20.40;99.90
34279;DHT22;20538;51.528;9.942;2023-08-06T08:28:18;20.60;99.90
34279;DHT22;20538;51.528;9.942;2023-08-06T08:30:43;20.70;99.90
34279;DHT22;20538;51.528;9.942;2023-08-06T08:33:09;21.00;99.90
34279;DHT22;20538;51.528;9.942;2023-08-06T08:35:36;20.80;99.90
34279;DHT22;20538;51.528;9.942;2023-08-06T08:38:02;20.30;99.90
34279;DHT22;20538;51.528;9.942;2023-08-06T08:40:32;20.60;99.90
34279;DHT22;20538;51.528;9.942;2023-08-06T08:42:59;20.70;99.90
34279;DHT22;20538;51.528;9.942;2023-08-06T08:45:28;21.10;99.90
34279;DHT22;20538;51.528;9.942;2023-08-06T08:47:55;21.40;99.90
34279;DHT22;20538;51.528;9.942;2023-08-06T08:50:21;21.70;99.90
34279;DHT22;20538;51.528;9.942;2023-08-06T08:52:47;21.80;99.90
34279;DHT22;20538;51.528;9.942;2023-08-06T08:55:15;21.60;99.90
34279;DHT22;20538;51.528;9.942;2023-08-06T08:57:42;21.30;99.90
34279;DHT22;20538;51.528;9.942;2023-08-06T09:00:08;21.20;99.90
34279;DHT22;20538;51.528;9.942;2023-08-06T09:02:34;21.00;99.90
34279;DHT22;20538;51.528;9.942;2023-08-06T09:05:01;20.80;99.90
34279;DHT22;20538;51.528;9.942;2023-08-06T09:07:34;20.70;99.90
34279;DHT22;20538;51.528;9.942;2023-08-06T09:10:02;20.50;99.90
34279;DHT22;20538;51.528;9.942;2023-08-06T09:12:29;20.40;99.90
34279;DHT22;20538;51.528;9.942;2023-08-06T09:14:55;20.20;99.90
34279;DHT22;20538;51.528;9.942;2023-08-06T09:17:21;20.10;99.90
34279;DHT22;20538;51.528;9.942;2023-08-06T09:19:47;20.20;99.90
34279;DHT22;20538;51.528;9.942;2023-08-06T09:22:14;19.90;99.90
34279;DHT22;20538;51.528;9.942;2023-08-06T09:24:41;19.90;99.90
34279;DHT22;20538;51.528;9.942;2023-08-06T09:27:14;20.00;99.90
34279;DHT22;20538;51.528;9.942;2023-08-06T09:29:43;20.30;99.90
34279;DHT22;20538;51.528;9.942;2023-08-06T09:32:10;20.40;99.90
34279;DHT22;20538;51.528;9.942;2023-08-06T09:34:39;20.50;99.90
34279;DHT22;20538;51.528;9.942;2023-08-06T09:37:05;20.50;99.90
34279;DHT22;20538;51.528;9.942;2023-08-06T09:39:30;20.50;99.90
34279;DHT22;20538;51.528;9.942;2023-08-06T09:41:57;20.60;99.90
34279;DHT22;20538;51.528;9.942;2023-08-06T09:44:25;20.50;99.90
34279;DHT22;20538;51.528;9.942;2023-08-06T09:46:55;20.40;99.90
34279;DHT22;20538;51.528;9.942;2023-08-06T09:49:48;21.10;99.90
34279;DHT22;20538;51.528;9.942;2023-08-06T09:52:17;20.80;99.90
34279;DHT22;20538;51.528;9.942;2023-08-06T09:54:44;21.40;99.90
34279;DHT22;20538;51.528;9.942;2023-08-06T09:57:12;21.60;99.90
34279;DHT22;20538;51.528;9.942;2023-08-06T09:59:39;21.60;99.90
34279;DHT22;20538;51.528;9.942;2023-08-06T10:02:13;21.40;99.90
34279;DHT22;20538;51.528;9.942;2023-08-06T10:04:39;20.80;99.90
34279;DHT22;20538;51.528;9.942;2023-08-06T10:07:11;20.80;99.90
34279;DHT22;20538;51.528;9.942;2023-08-06T10:09:38;20.90;99.90
34279;DHT22;20538;51.528;9.942;2023-08-06T10:12:04;21.40;99.90
34279;DHT22;20538;51.528;9.942;2023-08-06T10:14:35;20.70;99.90
34279;DHT22;20538;51.528;9.942;2023-08-06T10:17:03;21.00;99.90
34279;DHT22;20538;51.528;9.942;2023-08-06T10:19:29;21.40;99.90
34279;DHT22;20538;51.528;9.942;2023-08-06T10:22:16;21.20;99.90
34279;DHT22;20538;51.528;9.942;2023-08-06T10:24:50;21.60;99.90
34279;DHT22;20538;51.528;9.942;2023-08-06T10:27:28;21.90;99.90
34279;DHT22;20538;51.528;9.942;2023-08-06T10:29:54;21.80;99.90
34279;DHT22;20538;51.528;9.942;2023-08-06T10:32:20;22.00;99.50
34279;DHT22;20538;51.528;9.942;2023-08-06T10:34:54;21.80;99.50
34279;DHT22;20538;51.528;9.942;2023-08-06T10:37:21;22.10;99.90
34279;DHT22;20538;51.528;9.942;2023-08-06T10:39:51;21.90;98.70
34279;DHT22;20538;51.528;9.942;2023-08-06T10:42:22;21.60;99.10
34279;DHT22;20538;51.528;9.942;2023-08-06T10:45:23;21.40;99.90
34279;DHT22;20538;51.528;9.942;2023-08-06T10:47:54;21.70;99.70
34279;DHT22;20538;51.528;9.942;2023-08-06T10:50:22;22.00;99.20
34279;DHT22;20538;51.528;9.942;2023-08-06T10:52:48;22.30;98.90
34279;DHT22;20538;51.528;9.942;2023-08-06T10:55:23;22.40;99.50
34279;DHT22;20538;51.528;9.942;2023-08-06T10:57:49;22.50;98.10
34279;DHT22;20538;51.528;9.942;2023-08-06T11:00:15;22.30;97.80
34279;DHT22;20538;51.528;9.942;2023-08-06T11:02:41;22.20;97.90
34279;DHT22;20538;51.528;9.942;2023-08-06T11:05:08;22.90;97.50
34279;DHT22;20538;51.528;9.942;2023-08-06T11:07:35;23.30;97.00
34279;DHT22;20538;51.528;9.942;2023-08-06T11:10:03;23.50;98.30
34279;DHT22;20538;51.528;9.942;2023-08-06T11:12:30;22.90;96.30
34279;DHT22;20538;51.528;9.942;2023-08-06T11:14:55;22.60;96.80
34279;DHT22;20538;51.528;9.942;2023-08-06T11:17:21;23.20;96.90
34279;DHT22;20538;51.528;9.942;2023-08-06T11:19:47;23.60;96.60
34279;DHT22;20538;51.528;9.942;2023-08-06T11:22:14;23.80;95.20
34279;DHT22;20538;51.528;9.942;2023-08-06T11:24:40;23.70;93.90
34279;DHT22;20538;51.528;9.942;2023-08-06T11:27:12;23.00;93.40
34279;DHT22;20538;51.528;9.942;2023-08-06T11:29:38;22.20;96.00
34279;DHT22;20538;51.528;9.942;2023-08-06T11:32:08;22.10;96.70
34279;DHT22;20538;51.528;9.942;2023-08-06T11:34:34;22.40;97.10
34279;DHT22;20538;51.528;9.942;2023-08-06T11:37:00;22.80;96.50
34279;DHT22;20538;51.528;9.942;2023-08-06T11:39:25;22.50;96.80
34279;DHT22;20538;51.528;9.942;2023-08-06T11:41:51;22.20;96.40
34279;DHT22;20538;51.528;9.942;2023-08-06T11:44:22;22.90;96.80
34279;DHT22;20538;51.528;9.942;2023-08-06T11:46:55;22.30;95.80
34279;DHT22;20538;51.528;9.942;2023-08-06T11:49:43;21.90;96.00
34279;DHT22;20538;51.528;9.942;2023-08-06T11:52:25;21.80;95.30
34279;DHT22;20538;51.528;9.942;2023-08-06T11:55:06;21.90;95.30
34279;DHT22;20538;51.528;9.942;2023-08-06T11:57:34;21.90;95.50
34279;DHT22;20538;51.528;9.942;2023-08-06T12:00:04;21.90;95.60
34279;DHT22;20538;51.528;9.942;2023-08-06T12:02:34;21.90;95.80
34279;DHT22;20538;51.528;9.942;2023-08-06T12:05:11;21.70;94.40
34279;DHT22;20538;51.528;9.942;2023-08-06T12:07:40;21.60;94.60
34279;DHT22;20538;51.528;9.942;2023-08-06T12:10:07;21.80;95.10
34279;DHT22;20538;51.528;9.942;2023-08-06T12:12:37;22.00;94.80
34279;DHT22;20538;51.528;9.942;2023-08-06T12:15:04;22.40;95.90
34279;DHT22;20538;51.528;9.942;2023-08-06T12:17:32;22.80;95.00
34279;DHT22;20538;51.528;9.942;2023-08-06T12:19:58;22.90;93.70
34279;DHT22;20538;51.528;9.942;2023-08-06T12:22:23;22.70;94.30
34279;DHT22;20538;51.528;9.942;2023-08-06T12:24:49;22.80;92.80
34279;DHT22;20538;51.528;9.942;2023-08-06T12:27:15;23.00;93.90
34279;DHT22;20538;51.528;9.942;2023-08-06T12:29:47;22.90;92.80
34279;DHT22;20538;51.528;9.942;2023-08-06T12:32:14;22.40;93.20
34279;DHT22;20538;51.528;9.942;2023-08-06T12:34:40;22.20;93.40
34279;DHT22;20538;51.528;9.942;2023-08-06T12:37:06;21.90;93.70
34279;DHT22;20538;51.528;9.942;2023-08-06T12:39:36;22.00;94.10
34279;DHT22;20538;51.528;9.942;2023-08-06T12:42:03;22.00;93.90
34279;DHT22;20538;51.528;9.942;2023-08-06T12:44:30;22.10;94.60
34279;DHT22;20538;51.528;9.942;2023-08-06T12:46:55;22.10;94.70
34279;DHT22;20538;51.528;9.942;2023-08-06T12:49:21;22.20;94.90
34279;DHT22;20538;51.528;9.942;2023-08-06T12:51:51;22.30;93.20
34279;DHT22;20538;51.528;9.942;2023-08-06T12:54:17;22.50;93.70
34279;DHT22;20538;51.528;9.942;2023-08-06T12:56:44;22.80;93.80
34279;DHT22;20538;51.528;9.942;2023-08-06T12:59:10;22.90;93.90
34279;DHT22;20538;51.528;9.942;2023-08-06T13:01:37;22.90;93.00
34279;DHT22;20538;51.528;9.942;2023-08-06T13:04:04;22.80;95.20
34279;DHT22;20538;51.528;9.942;2023-08-06T13:06:30;22.50;96.30
34279;DHT22;20538;51.528;9.942;2023-08-06T13:08:59;22.40;96.70
34279;DHT22;20538;51.528;9.942;2023-08-06T13:11:25;22.00;97.10
34279;DHT22;20538;51.528;9.942;2023-08-06T13:13:51;22.00;97.80
34279;DHT22;20538;51.528;9.942;2023-08-06T13:16:17;21.80;97.80
34279;DHT22;20538;51.528;9.942;2023-08-06T13:18:43;21.50;99.10
34279;DHT22;20538;51.528;9.942;2023-08-06T13:21:08;21.50;98.80
34279;DHT22;20538;51.528;9.942;2023-08-06T13:23:34;21.20;98.50
34279;DHT22;20538;51.528;9.942;2023-08-06T13:26:00;21.10;98.70
34279;DHT22;20538;51.528;9.942;2023-08-06T13:28:28;20.90;99.20
34279;DHT22;20538;51.528;9.942;2023-08-06T13:30:54;20.80;99.90
34279;DHT22;20538;51.528;9.942;2023-08-06T13:33:20;20.50;99.90
34279;DHT22;20538;51.528;9.942;2023-08-06T13:35:46;20.40;99.90
34279;DHT22;20538;51.528;9.942;2023-08-06T13:38:11;20.20;99.90
34279;DHT22;20538;51.528;9.942;2023-08-06T13:40:37;19.90;99.90
34279;DHT22;20538;51.528;9.942;2023-08-06T13:43:02;19.60;99.90
34279;DHT22;20538;51.528;9.942;2023-08-06T13:45:31;19.50;99.90
34279;DHT22;20538;51.528;9.942;2023-08-06T13:47:57;19.50;99.90
34279;DHT22;20538;51.528;9.942;2023-08-06T13:50:22;19.30;99.90
34279;DHT22;20538;51.528;9.942;2023-08-06T13:52:51;19.10;99.90
34279;DHT22;20538;51.528;9.942;2023-08-06T13:55:18;18.90;99.90
34279;DHT22;20538;51.528;9.942;2023-08-06T13:57:44;18.80;99.90
34279;DHT22;20538;51.528;9.942;2023-08-06T14:00:10;18.60;99.90
34279;DHT22;20538;51.528;9.942;2023-08-06T14:02:36;18.40;99.90
34279;DHT22;20538;51.528;9.942;2023-08-06T14:05:02;18.30;99.90
34279;DHT22;20538;51.528;9.942;2023-08-06T14:07:28;18.10;99.90
34279;DHT22;20538;51.528;9.942;2023-08-06T14:09:54;18.10;99.90
34279;DHT22;20538;51.528;9.942;2023-08-06T14:12:22;18.00;99.90
34279;DHT22;20538;51.528;9.942;2023-08-06T14:14:48;17.90;99.90
34279;DHT22;20538;51.528;9.942;2023-08-06T14:17:14;17.70;99.90
34279;DHT22;20538;51.528;9.942;2023-08-06T14:19:41;17.60;99.90
34279;DHT22;20538;51.528;9.942;2023-08-06T14:22:07;17.60;99.90
34279;DHT22;20538;51.528;9.942;2023-08-06T14:24:32;17.50;99.90
34279;DHT22;20538;51.528;9.942;2023-08-06T14:26:58;17.30;99.90
34279;DHT22;20538;51.528;9.942;2023-08-06T14:29:24;17.30;99.90
34279;DHT22;20538;51.528;9.942;2023-08-06T14:31:50;17.40;99.90
34279;DHT22;20538;51.528;9.942;2023-08-06T14:34:16;17.30;99.90
34279;DHT22;20538;51.528;9.942;2023-08-06T14:36:42;17.10;99.90
34279;DHT22;20538;51.528;9.942;2023-08-06T14:39:08;17.10;99.90
34279;DHT22;20538;51.528;9.942;2023-08-06T14:41:33;17.30;99.90
34279;DHT22;20538;51.528;9.942;2023-08-06T14:43:59;17.30;99.90
34279;DHT22;20538;51.528;9.942;2023-08-06T14:46:25;17.20;99.90
34279;DHT22;20538;51.528;9.942;2023-08-06T14:48:51;17.20;99.90
34279;DHT22;20538;51.528;9.942;2023-08-06T14:51:16;17.20;99.90
34279;DHT22;20538;51.528;9.942;2023-08-06T14:53:44;17.20;99.90
34279;DHT22;20538;51.528;9.942;2023-08-06T14:56:10;17.30;99.90
34279;DHT22;20538;51.528;9.942;2023-08-06T14:58:36;17.20;99.90
34279;DHT22;20538;51.528;9.942;2023-08-06T15:01:02;17.20;99.90
34279;DHT22;20538;51.528;9.942;2023-08-06T15:03:27;17.20;99.90
34279;DHT22;20538;51.528;9.942;2023-08-06T15:05:54;17.10;99.90
34279;DHT22;20538;51.528;9.942;2023-08-06T15:08:20;17.00;99.90
34279;DHT22;20538;51.528;9.942;2023-08-06T15:10:52;16.90;99.90
34279;DHT22;20538;51.528;9.942;2023-08-06T15:13:18;16.90;99.90
34279;DHT22;20538;51.528;9.942;2023-08-06T15:15:47;16.80;99.90
34279;DHT22;20538;51.528;9.942;2023-08-06T15:18:13;16.80;99.90
34279;DHT22;20538;51.528;9.942;2023-08-06T15:20:41;16.80;99.90
34279;DHT22;20538;51.528;9.942;2023-08-06T15:23:07;16.80;99.90
34279;DHT22;20538;51.528;9.942;2023-08-06T15:25:33;16.90;99.90
34279;DHT22;20538;51.528;9.942;2023-08-06T15:27:59;16.80;99.90
34279;DHT22;20538;51.528;9.942;2023-08-06T15:30:24;16.90;99.90
34279;DHT22;20538;51.528;9.942;2023-08-06T15:32:50;16.70;99.90
34279;DHT22;20538;51.528;9.942;2023-08-06T15:35:16;16.70;99.90
34279;DHT22;20538;51.528;9.942;2023-08-06T15:37:41;16.70;99.90
34279;DHT22;20538;51.528;9.942;2023-08-06T15:40:07;16.70;99.90